Time;durP1;ratioP1;P1;durP2;ratioP2;P2;SDS_P1;SDS_P2;PMS_P1;PMS_P2;Temp;Humidity;BMP_temperature;BMP_pressure;BME280_temperature;BME280_humidity;BME280_pressure;Samples;Min_cycle;Max_cycle;Signal;HPM_P1;HPM_P2
2023/10/03 00:00:51;;;;;;;13.10;5.97;;;;;;;13.33;78.66;95778.31;5134186;27;20176;-71
2023/10/03 00:03:17;;;;;;;18.67;7.30;;;;;;;13.23;78.78;95768.94;5133954;27;20168;-71
2023/10/03 00:05:45;;;;;;;10.43;6.47;;;;;;;13.23;78.79;95777.94;5133849;27;20178;-71
2023/10/03 00:08:11;;;;;;;9.50;5.97;;;;;;;13.18;79.09;95778.50;5133828;27;20694;-71
2023/10/03 00:10:38;;;;;;;10.50;6.30;;;;;;;13.20;79.06;95777.31;5133802;27;20255;-71
2023/10/03 00:13:07;;;;;;;9.00;5.50;;;;;;;13.18;79.17;95778.50;5133866;27;20172;-71
2023/10/03 00:15:34;;;;;;;10.37;6.10;;;;;;;13.23;78.89;95777.94;5133758;27;20209;-71
2023/10/03 00:17:59;;;;;;;10.67;5.43;;;;;;;13.13;79.12;95776.50;5115410;27;20168;-71
2023/10/03 00:20:25;;;;;;;15.07;6.23;;;;;;;13.17;79.00;95775.06;5133729;27;20548;-71
2023/10/03 00:22:51;;;;;;;22.17;6.80;;;;;;;13.15;78.78;95770.97;5133945;27;20172;-70
2023/10/03 00:25:18;;;;;;;11.73;5.63;;;;;;;13.13;78.92;95779.16;5133410;27;20729;-71
2023/10/03 00:27:51;;;;;;;10.77;7.10;;;;;;;13.07;79.17;95777.25;5133495;27;20200;-71
2023/10/03 00:30:20;;;;;;;13.45;6.25;;;;;;;12.98;80.28;95769.72;5132083;27;20873;-71
2023/10/03 00:32:48;;;;;;;15.40;6.85;;;;;;;12.79;81.62;95776.66;5132035;27;20400;-71
2023/10/03 00:35:15;;;;;;;12.93;6.30;;;;;;;12.85;81.33;95776.66;5114324;28;20950;-71
2023/10/03 00:37:43;;;;;;;10.93;6.53;;;;;;;12.93;80.61;95783.56;5133402;27;20180;-71
2023/10/03 00:42:47;;;;;;;14.10;7.20;;;;;;;12.99;80.10;95776.66;5112847;28;20165;-71
2023/10/03 00:45:21;;;;;;;8.63;6.30;;;;;;;12.97;79.71;95771.59;5112822;28;20253;-71
2023/10/03 00:47:53;;;;;;;8.77;5.57;;;;;;;12.99;79.52;95771.34;5112455;28;20200;-71
2023/10/03 00:50:20;;;;;;;9.73;5.80;;;;;;;13.00;79.62;95779.09;5112531;28;20550;-71
2023/10/03 00:53:00;;;;;;;14.73;5.80;;;;;;;13.02;79.23;95779.72;5094248;28;20173;-72
2023/10/03 00:55:27;;;;;;;10.17;6.07;;;;;;;13.00;79.41;95773.00;5112430;28;20173;-72
2023/10/03 01:00:43;;;;;;;13.17;5.70;;;;;;;12.93;79.60;95782.75;5112392;28;20264;-72
2023/10/03 01:03:23;;;;;;;11.07;6.00;;;;;;;12.93;79.99;95783.56;5112164;28;20697;-71
2023/10/03 01:05:49;;;;;;;12.67;6.93;;;;;;;12.88;80.03;95779.91;5112092;28;20169;-71
2023/10/03 01:08:15;;;;;;;9.87;6.03;;;;;;;12.87;80.00;95779.09;5112053;28;20234;-71
2023/10/03 01:10:40;;;;;;;11.63;6.27;;;;;;;12.71;79.91;95759.13;5112270;28;20667;-71
2023/10/03 01:13:09;;;;;;;10.77;5.77;;;;;;;12.73;79.94;95764.22;5112164;28;20247;-71
2023/10/03 01:15:35;;;;;;;10.30;5.70;;;;;;;12.78;80.32;95783.75;5112085;28;20176;-71
2023/10/03 01:18:02;;;;;;;11.10;5.83;;;;;;;12.75;80.17;95781.50;5112029;28;20168;-71
2023/10/03 01:20:40;;;;;;;15.63;6.63;;;;;;;12.75;80.13;95780.69;5112115;28;20208;-72
2023/10/03 01:23:10;;;;;;;11.87;6.17;;;;;;;12.68;80.08;95778.06;5112068;28;20643;-72
2023/10/03 01:25:41;;;;;;;11.03;5.77;;;;;;;12.55;80.46;95766.63;5111923;28;20655;-72
2023/10/03 01:28:08;;;;;;;11.77;6.00;;;;;;;12.65;80.45;95777.63;5111591;28;20197;-72
2023/10/03 01:30:33;;;;;;;9.47;5.67;;;;;;;12.55;80.51;95753.44;5111578;28;20173;-72
2023/10/03 01:33:02;;;;;;;10.77;5.57;;;;;;;12.64;80.34;95770.72;5111645;28;20212;-72
2023/10/03 01:35:27;;;;;;;12.00;5.27;;;;;;;12.63;80.46;95774.38;5111361;28;20173;-72
2023/10/03 01:37:52;;;;;;;9.73;5.80;;;;;;;12.53;80.67;95774.78;5111700;28;20548;-71
2023/10/03 01:40:19;;;;;;;12.80;6.33;;;;;;;12.48;81.21;95775.38;5111816;28;20172;-71
2023/10/03 01:42:46;;;;;;;9.63;5.27;;;;;;;12.46;81.53;95772.09;5111780;28;20928;-71
2023/10/03 01:45:24;;;;;;;10.80;6.30;;;;;;;12.45;81.45;95769.69;5111659;28;20173;-71
2023/10/03 01:47:51;;;;;;;15.27;6.67;;;;;;;12.44;81.19;95774.16;5092310;28;20201;-72
2023/10/03 01:50:19;;;;;;;12.40;5.83;;;;;;;12.44;81.22;95776.78;5111376;28;20208;-72
2023/10/03 01:52:46;;;;;;;13.73;6.20;;;;;;;12.41;81.38;95776.38;5111494;28;20180;-72
2023/10/03 01:55:12;;;;;;;10.67;5.57;;;;;;;12.37;81.79;95767.19;5111539;28;20250;-72
2023/10/03 01:57:42;;;;;;;12.93;6.60;;;;;;;12.26;82.32;95778.34;5111259;28;20509;-72
2023/10/03 02:02:45;;;;;;;9.43;5.63;;;;;;;12.13;82.44;95755.34;5111290;28;20237;-72
2023/10/03 02:05:12;;;;;;;10.57;5.93;;;;;;;12.07;82.37;95732.41;5111483;28;20176;-72
2023/10/03 02:07:37;;;;;;;10.83;5.40;;;;;;;12.25;82.23;95763.53;5111291;28;20208;-72
2023/10/03 02:10:03;;;;;;;10.00;5.77;;;;;;;12.25;81.67;95759.06;5111585;28;20177;-72
2023/10/03 02:12:29;;;;;;;8.33;5.20;;;;;;;12.20;82.06;95756.19;5111251;28;20177;-72
2023/10/03 02:14:54;;;;;;;10.13;6.10;;;;;;;12.15;82.04;95752.53;5111013;28;20173;-72
2023/10/03 02:17:20;;;;;;;11.43;6.20;;;;;;;12.15;82.18;95742.78;5111025;28;20203;-72
2023/10/03 02:19:45;;;;;;;13.10;6.00;;;;;;;12.10;82.58;95745.22;5111000;28;20181;-72
2023/10/03 02:22:13;;;;;;;11.63;5.67;;;;;;;12.08;82.74;95744.59;5111063;28;20177;-72
2023/10/03 02:24:39;;;;;;;16.53;6.33;;;;;;;12.08;82.87;95744.59;5110877;28;20221;-72
2023/10/03 02:27:08;;;;;;;14.37;5.47;;;;;;;12.08;82.57;95749.88;5110950;28;20197;-72
2023/10/03 02:29:34;;;;;;;9.03;5.40;;;;;;;12.07;82.53;95738.50;5110809;28;20244;-72
2023/10/03 02:32:02;;;;;;;10.57;5.90;;;;;;;12.02;82.77;95737.47;5110870;28;20177;-72
2023/10/03 02:34:28;;;;;;;8.47;5.23;;;;;;;12.05;83.14;95739.69;5110624;28;20169;-72
2023/10/03 02:36:55;;;;;;;11.00;5.77;;;;;;;12.02;82.49;95737.47;5110892;28;20169;-72
2023/10/03 02:39:25;;;;;;;10.97;5.63;;;;;;;11.96;82.55;95730.31;5110797;28;20169;-71
2023/10/03 02:41:50;;;;;;;9.57;6.43;;;;;;;11.92;82.84;95726.47;5110834;28;20176;-71
2023/10/03 02:44:16;;;;;;;12.93;6.70;;;;;;;11.94;83.04;95734.97;5110661;28;20199;-71
2023/10/03 02:46:41;;;;;;;10.10;6.40;;;;;;;11.90;83.03;95731.13;5110648;28;20254;-71
2023/10/03 02:49:08;;;;;;;11.87;5.57;;;;;;;11.91;83.14;95733.56;5110723;28;20168;-72
2023/10/03 02:51:34;;;;;;;13.10;6.10;;;;;;;11.89;83.12;95730.31;5110625;28;20165;-71
2023/10/03 02:54:00;;;;;;;11.20;5.50;;;;;;;11.89;83.34;95732.13;5110573;28;20528;-72
2023/10/03 02:56:25;;;;;;;13.77;6.70;;;;;;;11.93;83.27;95739.47;5110502;28;20248;-71
2023/10/03 02:58:51;;;;;;;13.13;6.43;;;;;;;11.93;83.13;95738.66;5111745;28;20256;-71
2023/10/03 03:01:17;;;;;;;11.80;6.07;;;;;;;11.94;83.00;95742.88;5114772;28;20169;-71
2023/10/03 03:03:43;;;;;;;11.20;6.93;;;;;;;11.86;82.87;95732.50;5118520;27;20183;-71
2023/10/03 03:06:13;;;;;;;10.77;5.93;;;;;;;11.95;82.86;95747.16;5134948;27;20164;-72
2023/10/03 03:08:44;;;;;;;16.77;6.77;;;;;;;11.92;82.94;95752.84;5135115;27;20172;-72
2023/10/03 03:11:10;;;;;;;11.50;6.07;;;;;;;11.92;83.15;95751.03;5134572;27;20217;-72
2023/10/03 03:13:36;;;;;;;14.87;7.53;;;;;;;11.91;82.83;95741.47;5133673;27;20191;-72
2023/10/03 03:16:03;;;;;;;13.77;6.40;;;;;;;11.93;82.38;95757.94;5114308;28;20196;-72
2023/10/03 03:18:43;;;;;;;10.07;5.57;;;;;;;11.90;82.58;95754.88;5113834;28;20247;-73
2023/10/03 03:21:13;;;;;;;13.93;7.00;;;;;;;11.86;82.19;95757.06;5114123;28;20169;-72
2023/10/03 03:23:42;;;;;;;14.57;8.17;;;;;;;11.70;82.51;95734.44;5114121;28;20256;-70
2023/10/03 03:26:17;;;;;;;21.93;7.13;;;;;;;11.81;82.57;95762.13;5113685;28;20291;-70
2023/10/03 03:28:45;;;;;;;11.27;6.10;;;;;;;11.80;82.48;95767.59;5114046;28;20253;-70
2023/10/03 03:31:22;;;;;;;13.07;5.83;;;;;;;11.84;82.68;95766.22;5113990;28;20197;-70
2023/10/03 03:33:57;;;;;;;18.03;8.00;;;;;;;11.75;82.67;95760.28;5113974;28;20173;-70
2023/10/03 03:36:30;;;;;;;17.43;6.60;;;;;;;11.73;82.75;95759.63;5113667;28;20233;-70
2023/10/03 03:38:58;;;;;;;16.10;6.50;;;;;;;11.68;82.98;95764.66;5113921;28;20220;-71
2023/10/03 03:41:24;;;;;;;14.50;7.17;;;;;;;11.67;82.94;95760.41;5113889;28;20177;-71
2023/10/03 03:43:49;;;;;;;17.17;6.53;;;;;;;11.65;83.01;95765.06;5113764;28;20582;-71
2023/10/03 03:46:18;;;;;;;14.03;7.97;;;;;;;11.60;82.95;95765.63;5113648;28;20896;-71
2023/10/03 03:48:44;;;;;;;15.90;7.13;;;;;;;11.54;82.91;95766.41;5112860;28;20203;-71
2023/10/03 03:51:12;;;;;;;17.13;7.77;;;;;;;11.52;83.26;95768.44;5113579;28;20181;-71
2023/10/03 03:53:43;;;;;;;10.60;6.23;;;;;;;11.50;83.14;95774.94;5113612;28;20177;-71
2023/10/03 03:56:11;;;;;;;14.77;6.70;;;;;;;11.39;83.32;95770.19;5113732;28;20183;-71
2023/10/03 03:58:39;;;;;;;15.00;7.33;;;;;;;11.38;83.79;95771.19;5113625;27;20663;-72
2023/10/03 04:01:12;;;;;;;21.80;8.23;;;;;;;11.40;83.93;95775.25;5113264;28;20177;-71
2023/10/03 04:03:38;;;;;;;15.70;7.50;;;;;;;11.36;83.67;95776.63;5113542;28;20173;-71
2023/10/03 04:06:05;;;;;;;19.57;8.37;;;;;;;11.33;83.75;95779.66;5113366;28;20185;-72
2023/10/03 04:08:30;;;;;;;21.70;8.63;;;;;;;11.30;84.03;95769.50;5113413;28;20180;-71
2023/10/03 04:10:56;;;;;;;13.93;7.83;;;;;;;11.30;83.86;95772.97;5112372;28;20599;-71
2023/10/03 04:13:21;;;;;;;15.10;7.30;;;;;;;11.27;84.13;95775.97;5113234;28;20652;-71
2023/10/03 04:15:47;;;;;;;10.53;6.73;;;;;;;11.32;83.98;95778.06;5113032;28;20260;-71
2023/10/03 04:18:15;;;;;;;16.90;8.60;;;;;;;11.33;84.03;95774.38;5112737;28;20212;-71
2023/10/03 04:20:44;;;;;;;24.48;9.07;;;;;;;11.26;84.84;95773.53;5112112;28;20406;-71
2023/10/03 04:23:11;;;;;;;16.67;8.30;;;;;;;11.30;83.96;95769.50;5112780;28;20184;-71
2023/10/03 04:25:38;;;;;;;14.23;7.53;;;;;;;11.38;83.48;95777.28;5112680;28;20309;-71
2023/10/03 04:28:05;;;;;;;14.47;7.60;;;;;;;11.38;83.58;95773.81;5113010;28;20267;-71
2023/10/03 04:30:30;;;;;;;17.30;7.40;;;;;;;11.41;83.97;95776.91;5112688;28;20176;-71
2023/10/03 04:32:57;;;;;;;20.20;7.03;;;;;;;11.44;84.14;95773.03;5112655;28;20505;-71
2023/10/03 04:35:23;;;;;;;15.57;7.97;;;;;;;11.45;83.77;95772.03;5112949;28;20188;-72
2023/10/03 04:37:51;;;;;;;19.27;7.57;;;;;;;11.28;83.98;95748.59;5112862;28;20603;-72
2023/10/03 04:40:22;;;;;;;20.43;8.80;;;;;;;11.45;83.97;95772.03;5112543;28;20184;-72
2023/10/03 04:42:53;;;;;;;23.33;8.80;;;;;;;11.45;83.76;95767.56;5112766;28;20639;-72
2023/10/03 04:45:20;;;;;;;24.50;8.70;;;;;;;11.50;83.58;95769.66;5112556;28;20196;-71
2023/10/03 04:47:49;;;;;;;18.20;8.83;;;;;;;11.53;83.27;95772.69;5112570;28;20225;-72
2023/10/03 04:50:19;;;;;;;23.70;9.03;;;;;;;11.61;83.17;95780.44;5112556;28;20185;-72
2023/10/03 04:52:48;;;;;;;17.07;8.37;;;;;;;11.67;82.82;95770.97;5112574;28;20256;-72
2023/10/03 04:55:18;;;;;;;20.10;7.77;;;;;;;11.73;82.65;95772.81;5112875;28;20173;-73
2023/10/03 04:57:49;;;;;;;32.00;8.30;;;;;;;11.78;83.01;95777.53;5112475;28;20181;-73
2023/10/03 05:00:16;;;;;;;23.87;8.83;;;;;;;11.84;83.06;95776.75;5112593;28;20229;-72
2023/10/03 05:02:49;;;;;;;29.77;7.13;;;;;;;12.04;83.11;95780.28;5112396;28;20177;-72
2023/10/03 05:05:18;;;;;;;30.83;8.27;;;;;;;12.77;82.05;95779.50;5112338;28;20180;-72
2023/10/03 05:07:45;;;;;;;38.87;9.97;;;;;;;13.76;78.50;95781.28;5111943;28;20584;-72
2023/10/03 05:10:11;;;;;;;34.73;7.53;;;;;;;14.85;74.72;95786.53;5111040;28;20182;-72
2023/10/03 05:12:37;;;;;;;26.10;9.10;;;;;;;15.79;70.27;95791.69;5110900;28;20185;-71
2023/10/03 05:15:06;;;;;;;25.73;7.90;;;;;;;16.27;67.57;95799.72;5110979;28;20314;-72
2023/10/03 05:17:32;;;;;;;35.38;8.95;;;;;;;16.32;66.39;95804.41;5111078;28;20252;-72
2023/10/03 05:19:59;;;;;;;33.25;9.18;;;;;;;16.44;65.98;95799.94;5111011;28;20673;-71
2023/10/03 05:22:25;;;;;;;36.25;7.90;;;;;;;16.68;65.56;95790.28;5110876;28;20777;-74
2023/10/03 05:24:51;;;;;;;31.13;8.15;;;;;;;17.21;64.07;95798.28;5111373;28;20299;-72
2023/10/03 05:27:17;;;;;;;21.17;7.93;;;;;;;18.04;61.86;95806.09;5112006;28;20284;-72
2023/10/03 05:29:43;;;;;;;26.23;7.55;;;;;;;19.02;59.22;95811.28;5111798;28;20260;-71
2023/10/03 05:32:09;;;;;;;28.48;8.20;;;;;;;19.93;55.80;95804.78;5111659;28;20201;-72
2023/10/03 05:34:34;;;;;;;47.80;8.93;;;;;;;20.98;52.93;95809.03;5111660;28;20181;-72
2023/10/03 05:37:00;;;;;;;20.30;8.18;;;;;;;21.94;50.02;95803.69;5111643;28;20176;-72
2023/10/03 05:39:26;;;;;;;19.10;7.97;;;;;;;22.73;47.34;95803.59;5111342;28;20643;-72
2023/10/03 05:41:56;;;;;;;24.50;8.18;;;;;;;23.48;45.64;95806.69;5111691;28;20181;-72
2023/10/03 05:44:22;;;;;;;25.73;7.82;;;;;;;24.17;43.59;95801.56;5111473;28;20627;-72
2023/10/03 05:46:52;;;;;;;65.18;11.32;;;;;;;24.67;42.36;95808.69;5111219;28;20218;-72
2023/10/03 05:49:18;;;;;;;45.85;8.50;;;;;;;25.23;41.80;95811.13;5111515;28;20263;-71
2023/10/03 05:51:44;;;;;;;27.10;8.68;;;;;;;25.68;40.92;95795.72;5111353;28;20251;-72
2023/10/03 05:54:09;;;;;;;34.53;9.32;;;;;;;26.25;39.17;95811.09;5111366;28;20628;-72
2023/10/03 05:56:34;;;;;;;24.92;7.38;;;;;;;26.77;38.44;95812.16;5111357;28;20173;-72
2023/10/03 05:59:01;;;;;;;25.33;8.80;;;;;;;27.19;37.64;95805.94;5111458;28;20169;-72
2023/10/03 06:01:27;;;;;;;28.95;8.32;;;;;;;27.61;36.86;95811.28;5111401;28;20166;-72
2023/10/03 06:03:56;;;;;;;25.30;8.45;;;;;;;28.02;36.29;95814.09;5111311;28;20184;-72
2023/10/03 06:06:23;;;;;;;16.83;7.78;;;;;;;28.39;34.75;95820.53;5111112;28;20272;-72
2023/10/03 06:08:49;;;;;;;19.83;7.80;;;;;;;28.77;34.38;95813.84;5093080;28;20175;-72
2023/10/03 06:11:15;;;;;;;18.60;7.55;;;;;;;29.17;34.26;95819.50;5111348;28;20173;-72
2023/10/03 06:13:44;;;;;;;22.67;8.35;;;;;;;29.48;33.20;95811.53;5111193;28;20196;-72
2023/10/03 06:16:14;;;;;;;19.40;8.27;;;;;;;29.77;32.37;95822.75;5110998;28;20169;-72
2023/10/03 06:18:40;;;;;;;18.23;7.68;;;;;;;29.86;32.41;95822.81;5124751;27;20175;-72
2023/10/03 06:21:10;;;;;;;17.38;6.47;;;;;;;29.96;32.29;95833.44;5131438;27;20229;-72
2023/10/03 06:23:37;;;;;;;11.88;6.75;;;;;;;30.23;31.77;95830.59;5131418;27;20251;-72
2023/10/03 06:26:03;;;;;;;16.50;6.97;;;;;;;30.21;31.35;95819.22;5131431;27;20216;-72
2023/10/03 06:28:28;;;;;;;20.10;7.05;;;;;;;30.33;31.08;95832.25;5131645;27;20232;-72
2023/10/03 06:30:55;;;;;;;15.95;7.55;;;;;;;30.33;31.30;95827.59;5131568;27;20229;-72
2023/10/03 06:33:20;;;;;;;12.82;7.65;;;;;;;30.29;31.33;95823.09;5130791;27;20172;-72
2023/10/03 06:35:50;;;;;;;17.88;7.00;;;;;;;30.06;31.32;95814.19;5131323;27;20176;-72
2023/10/03 06:38:16;;;;;;;15.52;6.47;;;;;;;30.74;30.43;95835.47;5121709;27;20173;-72
2023/10/03 06:40:42;;;;;;;18.27;7.63;;;;;;;30.87;30.17;95833.78;5110938;28;20682;-72
2023/10/03 06:43:07;;;;;;;20.42;7.28;;;;;;;30.86;30.24;95829.44;5092715;28;20173;-72
2023/10/03 06:45:33;;;;;;;16.70;7.68;;;;;;;30.68;30.06;95836.75;5110819;28;20731;-72
2023/10/03 06:48:03;;;;;;;15.27;7.18;;;;;;;30.43;31.00;95848.28;5110799;28;20717;-72
2023/10/03 06:50:30;;;;;;;23.75;8.18;;;;;;;29.89;31.62;95847.44;5110696;28;20173;-72
2023/10/03 06:52:55;;;;;;;20.13;9.88;;;;;;;29.63;31.87;95838.31;5110908;28;20169;-71
2023/10/03 06:55:20;;;;;;;19.65;9.82;;;;;;;29.26;32.76;95839.38;5092568;28;20176;-71
2023/10/03 06:57:46;;;;;;;18.63;10.07;;;;;;;28.50;34.47;95839.00;5110938;28;20250;-71
2023/10/03 07:00:14;;;;;;;16.45;8.27;;;;;;;28.07;35.27;95835.69;5110626;28;20177;-70
2023/10/03 07:02:40;;;;;;;11.45;6.93;;;;;;;27.62;35.50;95828.31;5110692;28;20173;-70
2023/10/03 07:05:06;;;;;;;13.05;7.53;;;;;;;27.47;35.63;95842.88;5110553;28;20214;-69
2023/10/03 07:07:33;;;;;;;17.42;6.70;;;;;;;27.08;35.46;95851.22;5110686;28;20201;-70
2023/10/03 07:09:58;;;;;;;13.73;6.50;;;;;;;26.56;36.68;95842.09;5110406;28;20716;-70
2023/10/03 07:12:25;;;;;;;11.75;6.63;;;;;;;26.23;37.79;95834.88;5110429;28;20168;-70
2023/10/03 07:14:50;;;;;;;12.50;6.88;;;;;;;26.29;37.99;95844.59;5110384;28;20180;-69
2023/10/03 07:17:16;;;;;;;11.98;6.13;;;;;;;26.38;38.14;95848.25;5110394;28;20184;-70
2023/10/03 07:19:46;;;;;;;14.57;6.78;;;;;;;26.19;37.06;95842.75;5110268;28;20271;-70
2023/10/03 07:22:11;;;;;;;13.77;5.47;;;;;;;26.03;38.76;95846.69;5110526;28;20225;-70
2023/10/03 07:24:39;;;;;;;12.13;6.18;;;;;;;25.62;38.46;95850.78;5110207;28;20221;-70
2023/10/03 07:27:07;;;;;;;13.95;5.07;;;;;;;25.22;39.54;95847.25;5110281;28;20635;-70
2023/10/03 07:29:32;;;;;;;19.95;6.20;;;;;;;24.52;41.15;95845.63;5110407;28;20177;-70
2023/10/03 07:31:58;;;;;;;15.90;5.63;;;;;;;24.32;42.30;95850.00;5110222;28;20241;-70
2023/10/03 07:34:23;;;;;;;12.88;5.65;;;;;;;23.92;42.90;95850.84;5110329;28;20177;-70
2023/10/03 07:36:48;;;;;;;9.05;5.57;;;;;;;23.97;42.77;95855.38;5110360;28;20181;-70
2023/10/03 07:39:15;;;;;;;13.63;5.28;;;;;;;24.05;42.96;95852.97;5110196;28;20177;-70
2023/10/03 07:41:40;;;;;;;14.90;5.55;;;;;;;23.91;43.49;95843.03;5110148;28;20181;-70
2023/10/03 07:44:07;;;;;;;18.98;11.15;;;;;;;23.76;43.01;95851.13;5110255;28;20183;-70
2023/10/03 07:46:33;;;;;;;15.32;8.35;;;;;;;23.62;43.03;95843.56;5112108;28;20232;-69
2023/10/03 07:48:59;;;;;;;21.77;11.65;;;;;;;23.26;44.08;95848.06;5114205;28;20696;-69
2023/10/03 07:51:29;;;;;;;12.40;5.72;;;;;;;22.95;44.47;95836.44;5113909;28;20200;-70
2023/10/03 07:53:55;;;;;;;21.85;13.65;;;;;;;22.71;45.24;95840.63;5113763;28;20216;-70
2023/10/03 07:56:30;;;;;;;13.10;6.55;;;;;;;22.88;45.76;95841.25;5111226;27;20269;-69
2023/10/03 07:58:56;;;;;;;25.85;14.88;;;;;;;23.24;45.80;95842.16;5116228;27;20707;-69
2023/10/03 08:01:25;;;;;;;12.75;6.88;;;;;;;23.23;44.60;95842.41;5115496;27;20599;-69
2023/10/03 08:03:55;;;;;;;17.42;10.90;;;;;;;23.22;44.56;95838.13;5118620;27;20273;-69
2023/10/03 08:06:24;;;;;;;11.98;5.65;;;;;;;23.14;44.59;95838.63;5127879;27;20176;-69
2023/10/03 08:08:59;;;;;;;13.60;6.00;;;;;;;23.05;45.21;95832.16;5099621;28;20180;-69
2023/10/03 08:11:30;;;;;;;12.55;5.40;;;;;;;23.13;44.21;95835.16;5113185;27;20177;-69
2023/10/03 08:14:00;;;;;;;14.13;5.97;;;;;;;23.15;45.41;95827.63;5116695;27;20177;-70
2023/10/03 08:16:34;;;;;;;12.50;5.57;;;;;;;23.07;44.22;95821.97;5126976;27;20225;-70
2023/10/03 08:19:01;;;;;;;13.70;6.88;;;;;;;23.15;44.77;95837.56;5113477;27;20616;-68
2023/10/03 08:21:28;;;;;;;15.90;5.40;;;;;;;23.32;45.69;95814.75;5113158;27;20181;-69
2023/10/03 08:23:54;;;;;;;14.38;6.25;;;;;;;23.31;44.85;95818.53;5099033;27;20188;-68
2023/10/03 08:26:21;;;;;;;11.15;5.85;;;;;;;22.62;46.00;95826.09;5117588;27;20691;-68
2023/10/03 08:28:59;;;;;;;16.90;6.90;;;;;;;22.16;47.47;95827.72;5123794;27;20181;-71
2023/10/03 08:31:28;;;;;;;17.45;7.03;;;;;;;21.88;48.63;95825.38;5126135;27;20179;-68
2023/10/03 08:33:56;;;;;;;16.33;5.95;;;;;;;22.44;48.61;95829.22;5119901;27;20173;-69
2023/10/03 08:36:23;;;;;;;17.42;7.00;;;;;;;22.65;47.53;95820.22;5117821;27;20185;-70
2023/10/03 08:38:51;;;;;;;17.52;6.90;;;;;;;23.37;46.50;95816.63;5121827;27;20179;-69
2023/10/03 08:41:28;;;;;;;10.35;5.93;;;;;;;23.79;44.67;95820.97;5116799;27;20170;-70
2023/10/03 08:43:55;;;;;;;10.70;7.13;;;;;;;23.81;43.54;95814.25;5113229;27;20204;-69
2023/10/03 08:46:28;;;;;;;9.57;5.95;;;;;;;23.82;43.61;95813.19;5111112;27;20255;-70
2023/10/03 08:49:00;;;;;;;13.95;6.32;;;;;;;24.21;43.44;95809.94;5127657;27;20188;-69
2023/10/03 08:51:32;;;;;;;12.25;6.15;;;;;;;23.90;43.02;95804.56;5118022;27;20183;-69
2023/10/03 08:54:09;;;;;;;13.05;5.70;;;;;;;23.26;44.44;95801.59;5113820;27;20268;-69
2023/10/03 08:56:35;;;;;;;13.02;6.28;;;;;;;23.32;44.14;95787.88;5118380;27;20188;-69
2023/10/03 08:59:09;;;;;;;14.07;6.28;;;;;;;23.76;43.40;95805.38;5124377;27;20164;-69
2023/10/03 09:01:43;;;;;;;15.52;6.40;;;;;;;24.13;43.28;95800.47;5111093;28;20199;-70
2023/10/03 09:04:15;;;;;;;10.25;6.35;;;;;;;24.23;42.36;95792.41;5110682;28;20180;-71
2023/10/03 09:06:45;;;;;;;20.63;6.78;;;;;;;24.65;42.50;95801.97;5111277;28;20181;-70
2023/10/03 09:09:16;;;;;;;10.15;5.63;;;;;;;24.53;40.92;95788.00;5110248;27;20634;-69
2023/10/03 09:11:43;;;;;;;18.70;5.25;;;;;;;24.16;42.26;95791.88;5111519;28;20181;-69
2023/10/03 09:14:19;;;;;;;13.90;6.15;;;;;;;24.18;41.96;95778.94;5112367;27;20177;-69
2023/10/03 09:16:50;;;;;;;11.00;5.50;;;;;;;24.17;42.01;95793.47;5116541;27;20619;-70
2023/10/03 09:19:26;;;;;;;14.10;6.72;;;;;;;24.36;41.52;95791.84;5113783;27;20165;-70
2023/10/03 09:21:54;;;;;;;11.57;5.57;;;;;;;24.40;41.96;95792.09;5111931;27;20275;-69
2023/10/03 09:24:21;;;;;;;14.88;5.93;;;;;;;24.21;41.61;95789.22;5112296;27;20727;-73
2023/10/03 09:26:51;;;;;;;11.55;6.13;;;;;;;23.56;42.75;95782.81;5116930;27;20232;-72
2023/10/03 09:29:32;;;;;;;11.98;5.15;;;;;;;23.31;43.70;95785.47;5112194;27;20185;-71
2023/10/03 09:32:15;;;;;;;21.05;6.43;;;;;;;23.56;44.33;95757.81;5112645;27;20165;-70
2023/10/03 09:34:42;;;;;;;12.77;5.88;;;;;;;23.67;42.78;95773.66;5122427;27;20588;-70
2023/10/03 09:37:08;;;;;;;10.40;5.93;;;;;;;23.60;43.49;95767.75;5113108;27;20165;-70
2023/10/03 09:39:49;;;;;;;13.57;5.90;;;;;;;23.34;43.54;95768.81;5111316;27;20615;-69
2023/10/03 09:42:16;;;;;;;13.23;6.25;;;;;;;23.58;43.85;95769.91;5128413;27;20271;-70
2023/10/03 09:44:46;;;;;;;9.02;5.13;;;;;;;23.40;43.46;95765.03;5118139;27;20897;-68
2023/10/03 09:47:13;;;;;;;14.30;5.90;;;;;;;23.35;44.13;95772.31;5114950;27;20200;-70
2023/10/03 09:49:39;;;;;;;10.82;5.55;;;;;;;23.09;43.41;95756.13;5111163;28;20200;-69
2023/10/03 09:52:22;;;;;;;11.40;6.13;;;;;;;22.77;43.95;95739.44;5111572;28;20173;-69
2023/10/03 09:54:59;;;;;;;15.40;6.55;;;;;;;22.97;45.31;95760.16;5111533;28;20192;-68
2023/10/03 09:57:28;;;;;;;9.90;5.90;;;;;;;22.81;45.74;95760.13;5110950;28;20534;-68
2023/10/03 09:59:55;;;;;;;15.15;6.18;;;;;;;22.51;45.41;95739.34;5111522;28;20189;-69
2023/10/03 10:02:35;;;;;;;12.40;6.18;;;;;;;22.28;45.69;95739.81;5110636;28;20213;-68
2023/10/03 10:05:19;;;;;;;14.70;6.30;;;;;;;22.32;46.25;95748.94;5111293;28;20623;-68
2023/10/03 10:08:08;;;;;;;9.70;5.55;;;;;;;22.49;45.47;95746.84;5110644;28;20287;-68
2023/10/03 10:10:35;;;;;;;13.25;6.80;;;;;;;22.20;45.31;95749.16;5111033;28;20747;-70
2023/10/03 10:13:20;;;;;;;13.57;6.45;;;;;;;22.08;45.87;95745.88;5111105;28;20173;-69
2023/10/03 10:16:20;;;;;;;12.70;5.90;;;;;;;22.16;46.54;95736.53;5111072;28;20568;-69
2023/10/03 10:18:46;;;;;;;14.23;6.35;;;;;;;22.25;46.63;95731.47;5111124;28;20200;-69
2023/10/03 10:21:20;;;;;;;12.90;6.03;;;;;;;22.31;45.38;95727.75;5110997;28;20693;-69
2023/10/03 10:24:16;;;;;;;10.00;5.95;;;;;;;22.39;45.39;95725.38;5110767;28;20168;-69
2023/10/03 10:26:49;;;;;;;10.68;5.97;;;;;;;22.37;45.08;95721.31;5110854;28;20263;-69
2023/10/03 10:29:20;;;;;;;14.95;7.05;;;;;;;22.42;45.19;95716.75;5110835;28;20204;-69
2023/10/03 10:31:57;;;;;;;8.40;5.22;;;;;;;22.45;45.82;95716.25;5110669;28;20190;-69
2023/10/03 10:34:27;;;;;;;10.55;5.32;;;;;;;22.57;45.51;95706.06;5110762;28;20661;-69
2023/10/03 10:37:04;;;;;;;13.63;6.07;;;;;;;22.69;45.79;95711.19;5110724;28;20169;-69
2023/10/03 10:39:55;;;;;;;10.63;5.72;;;;;;;22.81;45.71;95703.75;5110640;28;20157;-69
2023/10/03 10:42:24;;;;;;;15.93;4.95;;;;;;;22.97;45.45;95698.38;5110541;28;20176;-69
2023/10/03 10:45:14;;;;;;;14.43;5.50;;;;;;;23.10;44.45;95695.16;5110653;28;20173;-69
2023/10/03 10:47:46;;;;;;;10.90;5.53;;;;;;;23.21;44.52;95696.78;5110486;28;20193;-69
2023/10/03 10:50:11;;;;;;;11.10;5.75;;;;;;;23.30;44.41;95695.97;5110540;28;20668;-69
2023/10/03 10:52:57;;;;;;;18.67;5.72;;;;;;;23.21;43.35;95700.25;5110666;28;20176;-69
2023/10/03 10:55:26;;;;;;;9.07;5.75;;;;;;;23.05;43.77;95695.16;5110650;28;20177;-69
2023/10/03 10:58:07;;;;;;;11.27;5.82;;;;;;;22.92;43.70;95688.44;5110675;28;20177;-69
2023/10/03 11:00:33;;;;;;;14.13;6.80;;;;;;;22.87;44.75;95685.75;5110572;28;20172;-69
2023/10/03 11:03:00;;;;;;;12.80;5.32;;;;;;;22.90;44.36;95680.66;5110234;28;20204;-69
2023/10/03 11:05:42;;;;;;;9.25;5.88;;;;;;;22.81;44.46;95671.53;5110314;28;20618;-69
2023/10/03 11:08:07;;;;;;;11.43;5.30;;;;;;;22.67;44.35;95672.25;5110272;28;20288;-69
2023/10/03 11:10:33;;;;;;;15.43;6.10;;;;;;;22.69;44.49;95668.25;5110138;28;20550;-69
2023/10/03 11:13:03;;;;;;;11.82;6.28;;;;;;;22.70;44.70;95667.16;5110391;28;20620;-69
2023/10/03 11:15:29;;;;;;;11.75;5.30;;;;;;;22.80;45.04;95667.22;5110173;28;20177;-69
2023/10/03 11:17:57;;;;;;;12.85;5.05;;;;;;;22.94;45.09;95654.88;5110309;28;20252;-69
2023/10/03 11:20:22;;;;;;;17.33;6.30;;;;;;;23.07;44.64;95660.78;5112262;28;20173;-70
2023/10/03 11:22:48;;;;;;;12.95;6.63;;;;;;;23.14;43.95;95658.63;5096136;28;20232;-69
2023/10/03 11:25:13;;;;;;;9.35;5.93;;;;;;;23.17;43.49;95650.03;5114166;28;20251;-69
2023/10/03 11:27:39;;;;;;;12.95;5.13;;;;;;;23.19;43.40;95647.84;5114222;28;20208;-70
2023/10/03 11:30:15;;;;;;;13.70;5.35;;;;;;;23.20;43.37;95644.91;5114215;28;20181;-70
2023/10/03 11:32:40;;;;;;;9.55;5.53;;;;;;;23.00;43.54;95644.13;5114083;28;20260;-69
2023/10/03 11:35:21;;;;;;;10.50;5.65;;;;;;;22.87;43.94;95640.91;5114020;28;20652;-69
2023/10/03 11:37:48;;;;;;;12.15;5.90;;;;;;;22.73;44.23;95631.75;5114176;28;20169;-69
2023/10/03 11:40:23;;;;;;;12.77;5.07;;;;;;;22.66;44.58;95635.78;5113889;28;20169;-70
2023/10/03 11:42:58;;;;;;;12.30;5.80;;;;;;;22.58;45.09;95626.34;5113807;28;20168;-69